Time;durP1;ratioP1;P1;durP2;ratioP2;P2;SDS_P1;SDS_P2;PMS_P1;PMS_P2;Temp;Humidity;BMP_temperature;BMP_pressure;BME280_temperature;BME280_humidity;BME280_pressure;Samples;Min_cycle;Max_cycle;Signal;HPM_P1;HPM_P2
2022/12/16 00:01:06;;;;;;;;;;;21.50;28.90;;;;;;5074922;28;20031;-72
2022/12/16 00:03:31;;;;;;;;;;;21.60;28.90;;;;;;5076009;28;20014;-72
2022/12/16 00:05:57;;;;;;;;;;;21.60;28.80;;;;;;5076017;28;19975;-72
2022/12/16 00:08:22;;;;;;;;;;;21.70;28.80;;;;;;5074654;28;19963;-72
2022/12/16 00:10:55;;;;;;;;;;;21.60;28.80;;;;;;5076092;28;19921;-66
2022/12/16 00:13:20;;;;;;;;;;;21.60;28.80;;;;;;5074761;28;19966;-72
2022/12/16 00:15:46;;;;;;;;;;;21.50;28.90;;;;;;5074888;28;20292;-71
2022/12/16 00:18:12;;;;;;;;;;;21.50;29.50;;;;;;5074330;28;19924;-71
2022/12/16 00:20:42;;;;;;;;;;;21.40;28.90;;;;;;5074472;28;19921;-71
2022/12/16 00:23:07;;;;;;;;;;;21.40;29.00;;;;;;5074377;28;19927;-72
2022/12/16 00:25:33;;;;;;;;;;;21.30;29.10;;;;;;5074656;28;20011;-66
2022/12/16 00:27:58;;;;;;;;;;;21.20;29.10;;;;;;5091073;28;20366;-72
2022/12/16 00:30:24;;;;;;;;;;;21.20;29.20;;;;;;5074312;28;19920;-72
2022/12/16 00:32:49;;;;;;;;;;;21.10;29.20;;;;;;5075473;28;19927;-72
2022/12/16 00:35:15;;;;;;;;;;;21.00;29.20;;;;;;5074150;28;19921;-67
2022/12/16 00:37:40;;;;;;;;;;;21.00;29.30;;;;;;5074098;28;19924;-67
2022/12/16 00:40:06;;;;;;;;;;;21.00;29.30;;;;;;5073594;28;19928;-72
2022/12/16 00:42:31;;;;;;;;;;;20.90;29.30;;;;;;5074286;28;19973;-71
2022/12/16 00:44:57;;;;;;;;;;;21.00;29.40;;;;;;5075168;28;19927;-72
2022/12/16 00:47:22;;;;;;;;;;;21.00;29.30;;;;;;5074989;28;19987;-71
2022/12/16 00:49:48;;;;;;;;;;;21.00;29.30;;;;;;5074219;28;19967;-71
2022/12/16 00:52:13;;;;;;;;;;;21.00;29.30;;;;;;5073398;28;20323;-71
2022/12/16 00:54:39;;;;;;;;;;;21.10;29.90;;;;;;5073153;28;20390;-72
2022/12/16 00:57:04;;;;;;;;;;;21.10;29.20;;;;;;5073593;28;19963;-71
2022/12/16 00:59:30;;;;;;;;;;;21.10;29.20;;;;;;5073410;28;19973;-67
2022/12/16 01:01:55;;;;;;;;;;;21.10;29.20;;;;;;5073954;28;19926;-72
2022/12/16 01:04:21;;;;;;;;;;;21.10;29.20;;;;;;5073500;28;20403;-72
2022/12/16 01:06:46;;;;;;;;;;;21.20;29.10;;;;;;5075043;28;19928;-72
2022/12/16 01:09:12;;;;;;;;;;;21.20;29.10;;;;;;5074695;28;20016;-71
2022/12/16 01:11:37;;;;;;;;;;;21.20;29.00;;;;;;5090165;28;19920;-72
2022/12/16 01:14:03;;;;;;;;;;;21.30;29.10;;;;;;5073408;28;20437;-67
2022/12/16 01:16:29;;;;;;;;;;;21.30;29.10;;;;;;5073528;28;19928;-71
2022/12/16 01:18:55;;;;;;;;;;;21.30;29.10;;;;;;5073250;28;20370;-67
2022/12/16 01:21:21;;;;;;;;;;;21.30;29.10;;;;;;5073453;28;19920;-71
2022/12/16 01:23:46;;;;;;;;;;;21.30;29.00;;;;;;5074519;28;19927;-71
2022/12/16 01:26:14;;;;;;;;;;;21.30;29.10;;;;;;5073413;28;19927;-71
2022/12/16 01:28:40;;;;;;;;;;;21.20;29.00;;;;;;5073110;28;19920;-71
2022/12/16 01:31:05;;;;;;;;;;;21.20;29.00;;;;;;5089966;28;19934;-67
2022/12/16 01:33:31;;;;;;;;;;;21.20;29.10;;;;;;5072291;28;19935;-71
2022/12/16 01:35:58;;;;;;;;;;;21.20;29.10;;;;;;5072798;28;19920;-66
2022/12/16 01:38:23;;;;;;;;;;;21.10;29.10;;;;;;5077648;28;20294;-71
2022/12/16 01:40:50;;;;;;;;;;;21.10;29.10;;;;;;5076233;28;19924;-67
2022/12/16 01:43:22;;;;;;;;;;;21.10;29.10;;;;;;5076258;28;19920;-72
2022/12/16 01:45:48;;;;;;;;;;;21.10;29.10;;;;;;5076580;28;19921;-71
2022/12/16 01:50:58;;;;;;;;;;;21.00;29.10;;;;;;5089638;28;20284;-71
2022/12/16 01:53:23;;;;;;;;;;;21.00;29.20;;;;;;5088486;28;19935;-71
2022/12/16 01:55:50;;;;;;;;;;;21.00;29.20;;;;;;5088481;28;19920;-65
2022/12/16 01:58:19;;;;;;;;;;;21.00;29.10;;;;;;5088631;28;19921;-70
2022/12/16 02:00:45;;;;;;;;;;;21.00;29.20;;;;;;5088358;28;20418;-70
2022/12/16 02:03:10;;;;;;;;;;;21.00;29.20;;;;;;5088340;28;19920;-70
2022/12/16 02:05:39;;;;;;;;;;;21.00;29.10;;;;;;5088179;28;19928;-66
2022/12/16 02:10:51;;;;;;;;;;;21.10;29.10;;;;;;5110273;27;19934;-71
2022/12/16 02:16:15;;;;;;;;;;;21.10;29.10;;;;;;5127928;27;1849009;-72
2022/12/16 02:29:46;;;;;;;;;;;21.10;29.10;;;;;;5089846;28;19941;-71
2022/12/16 02:32:19;;;;;;;;;;;21.20;29.10;;;;;;5089688;28;19967;-66
2022/12/16 02:37:34;;;;;;;;;;;21.10;29.10;;;;;;5110144;27;19912;-71
2022/12/16 02:40:02;;;;;;;;;;;21.00;29.10;;;;;;5109194;28;19943;-72
2022/12/16 02:45:14;;;;;;;;;;;21.10;29.20;;;;;;5090010;28;19912;-66
2022/12/16 02:47:39;;;;;;;;;;;21.10;29.20;;;;;;5088532;28;19960;-66
2022/12/16 02:50:12;;;;;;;;;;;21.20;29.20;;;;;;5088559;28;19963;-71
2022/12/16 02:52:38;;;;;;;;;;;21.00;29.30;;;;;;5088453;28;19972;-66
2022/12/16 02:55:06;;;;;;;;;;;20.90;29.30;;;;;;5088539;28;19952;-69
2022/12/16 03:00:13;;;;;;;;;;;20.80;29.40;;;;;;5127284;27;1864694;-71
2022/12/16 03:05:50;;;;;;;;;;;21.00;29.30;;;;;;5089950;28;20295;-70
2022/12/16 03:08:19;;;;;;;;;;;21.00;29.20;;;;;;5088870;28;20344;-71
2022/12/16 03:10:47;;;;;;;;;;;21.00;29.20;;;;;;5089791;28;20376;-71
2022/12/16 03:13:14;;;;;;;;;;;21.00;29.20;;;;;;5088780;28;19921;-66
2022/12/16 03:15:40;;;;;;;;;;;21.00;29.10;;;;;;5088734;28;19979;-66
2022/12/16 03:18:07;;;;;;;;;;;21.00;29.10;;;;;;5088777;28;19952;-66
2022/12/16 03:20:43;;;;;;;;;;;21.00;29.20;;;;;;5088292;28;19920;-71
2022/12/16 03:23:12;;;;;;;;;;;21.00;29.10;;;;;;5088464;28;20429;-71
2022/12/16 03:25:39;;;;;;;;;;;21.10;29.20;;;;;;5088195;28;19928;-71
2022/12/16 03:28:25;;;;;;;;;;;21.00;29.10;;;;;;5088515;28;20287;-71
2022/12/16 03:30:55;;;;;;;;;;;21.10;29.20;;;;;;5088172;28;20295;-71
2022/12/16 03:36:01;;;;;;;;;;;21.10;29.20;;;;;;5127652;27;1858649;-72
2022/12/16 03:38:27;;;;;;;;;;;21.00;29.10;;;;;;5174395;27;20422;-66
2022/12/16 03:40:54;;;;;;;;;;;21.10;29.10;;;;;;5156922;27;19930;-70
2022/12/16 03:43:19;;;;;;;;;;;21.10;29.10;;;;;;5174429;27;19918;-71
2022/12/16 03:45:50;;;;;;;;;;;21.10;29.10;;;;;;5193124;27;19963;-71
2022/12/16 03:48:19;;;;;;;;;;;21.10;29.10;;;;;;5174314;27;19947;-66
2022/12/16 03:50:44;;;;;;;;;;;21.10;29.10;;;;;;5174196;27;19929;-66
2022/12/16 03:53:10;;;;;;;;;;;21.10;29.10;;;;;;5174581;27;19918;-71
2022/12/16 03:55:35;;;;;;;;;;;21.10;29.10;;;;;;5173919;27;20007;-70
2022/12/16 03:58:01;;;;;;;;;;;21.10;29.20;;;;;;5174275;27;20282;-71
2022/12/16 04:00:26;;;;;;;;;;;21.10;29.20;;;;;;5173866;27;19990;-71
2022/12/16 04:02:52;;;;;;;;;;;21.10;29.20;;;;;;5174000;27;19922;-71
2022/12/16 04:05:18;;;;;;;;;;;21.10;29.20;;;;;;5173746;27;19925;-71
2022/12/16 04:07:43;;;;;;;;;;;21.10;29.10;;;;;;5174206;27;19925;-72
2022/12/16 04:10:09;;;;;;;;;;;21.10;29.10;;;;;;5192864;27;20293;-72
2022/12/16 04:24:18;;;;;;;;;;;21.10;29.10;;;;;;5173631;27;20017;-71
2022/12/16 04:27:23;;;;;;;;;;;21.10;29.10;;;;;;5173611;27;20017;-71
2022/12/16 04:29:18;;;;;;;;;;;21.10;29.20;;;;;;5192025;27;19925;-66
2022/12/16 04:31:44;;;;;;;;;;;21.00;29.10;;;;;;5192224;27;19919;-65
2022/12/16 04:34:24;;;;;;;;;;;21.00;29.10;;;;;;5173674;27;19922;-66
